createdAt,value
2018-09-03T00:00:37.604Z,21.63
2018-09-03T00:03:06.746Z,23.00
2018-09-03T00:05:35.977Z,21.30
2018-09-03T00:08:05.186Z,21.57
2018-09-03T00:10:34.412Z,23.07
2018-09-03T00:13:03.587Z,20.40
2018-09-03T00:15:32.745Z,21.00
2018-09-03T00:18:02.087Z,20.90
2018-09-03T00:20:31.237Z,22.37
2018-09-03T00:23:00.617Z,20.93
2018-09-03T00:25:29.741Z,20.20
2018-09-03T00:27:58.887Z,19.33
2018-09-03T00:30:28.164Z,20.00
2018-09-03T00:33:02.795Z,20.73
2018-09-03T00:35:37.396Z,18.70
2018-09-03T00:38:12.028Z,20.57
2018-09-03T00:40:46.633Z,23.57
2018-09-03T00:43:21.215Z,21.43
2018-09-03T00:45:55.687Z,24.47
2018-09-03T00:48:24.832Z,22.77
2018-09-03T00:50:54.053Z,22.50
2018-09-03T00:53:23.318Z,25.33
2018-09-03T00:55:52.436Z,24.10
2018-09-03T00:58:21.599Z,22.87
2018-09-03T01:00:50.755Z,21.83
2018-09-03T01:03:19.973Z,21.57
2018-09-03T01:05:49.106Z,21.63
2018-09-03T01:08:18.265Z,20.83
2018-09-03T01:10:47.430Z,22.00
2018-09-03T01:13:16.595Z,21.07
2018-09-03T01:15:45.765Z,21.53
2018-09-03T01:18:14.851Z,21.43
2018-09-03T01:20:44.124Z,21.87
2018-09-03T01:23:13.276Z,21.30
2018-09-03T01:25:42.429Z,21.83
2018-09-03T01:28:11.566Z,20.93
2018-09-03T01:30:40.784Z,22.50
2018-09-03T01:33:09.964Z,20.43
2018-09-03T01:35:39.090Z,21.03
2018-09-03T01:38:08.428Z,22.17
2018-09-03T01:40:37.540Z,21.27
2018-09-03T01:43:06.774Z,21.80
2018-09-03T01:45:36.098Z,22.27
2018-09-03T01:48:05.328Z,22.63
2018-09-03T01:50:34.511Z,24.10
2018-09-03T01:53:03.657Z,22.73
2018-09-03T01:55:32.922Z,23.57
2018-09-03T01:58:02.067Z,23.23
2018-09-03T02:00:31.319Z,23.60
2018-09-03T02:03:00.556Z,25.63
2018-09-03T02:05:30.414Z,25.10
2018-09-03T02:07:59.576Z,24.97
2018-09-03T02:10:28.776Z,24.53
2018-09-03T02:12:57.908Z,24.23
2018-09-03T02:15:27.044Z,25.57
2018-09-03T02:17:56.235Z,28.70
2018-09-03T02:20:26.008Z,28.37
2018-09-03T02:22:55.137Z,27.57
2018-09-03T02:25:24.401Z,29.47
2018-09-03T02:27:54.304Z,28.40
2018-09-03T02:30:23.464Z,34.00
2018-09-03T02:32:52.773Z,32.77
2018-09-03T02:35:21.829Z,38.33
2018-09-03T02:37:51.256Z,35.63
2018-09-03T02:40:20.453Z,35.23
2018-09-03T02:42:49.687Z,37.53
2018-09-03T02:45:18.828Z,40.33
2018-09-03T02:47:47.992Z,40.17
2018-09-03T02:50:17.242Z,39.67
2018-09-03T02:52:46.401Z,42.50
2018-09-03T02:55:15.529Z,42.03
2018-09-03T02:57:44.719Z,46.03
2018-09-03T03:00:14.055Z,45.20
2018-09-03T03:02:43.250Z,46.57
2018-09-03T03:05:12.498Z,53.00
2018-09-03T03:07:41.642Z,54.00
2018-09-03T03:10:10.803Z,48.60
2018-09-03T03:12:40.070Z,47.10
2018-09-03T03:15:09.241Z,49.20
2018-09-03T03:17:38.385Z,49.77
2018-09-03T03:20:08.441Z,49.60
2018-09-03T03:22:37.603Z,47.73
2018-09-03T03:25:06.836Z,48.50
2018-09-03T03:27:36.718Z,43.53
2018-09-03T03:30:07.503Z,46.47
2018-09-03T03:32:36.655Z,46.90
2018-09-03T03:35:06.993Z,45.20
2018-09-03T03:37:36.492Z,47.90
2018-09-03T03:40:05.777Z,42.83
2018-09-03T03:42:34.914Z,39.97
2018-09-03T03:45:04.148Z,41.67
2018-09-03T03:47:33.452Z,42.60
2018-09-03T03:50:02.627Z,43.10
2018-09-03T03:52:31.983Z,43.33
2018-09-03T03:55:01.226Z,38.30
2018-09-03T03:57:30.282Z,42.10
2018-09-03T03:59:59.571Z,41.43
2018-09-03T04:02:28.799Z,38.57
2018-09-03T04:04:58.564Z,40.60
2018-09-03T04:07:27.785Z,41.50
2018-09-03T04:09:57.079Z,42.40
2018-09-03T04:12:26.350Z,40.87
2018-09-03T04:14:55.512Z,39.57
2018-09-03T04:17:24.803Z,40.67
2018-09-03T04:19:57.595Z,42.27
2018-09-03T04:22:26.767Z,43.33
2018-09-03T04:24:56.137Z,41.17
2018-09-03T04:27:25.352Z,42.73
2018-09-03T04:29:54.553Z,40.73
2018-09-03T04:32:23.873Z,40.20
2018-09-03T04:34:53.052Z,41.10
2018-09-03T04:37:22.197Z,41.43
2018-09-03T04:39:51.322Z,41.17
2018-09-03T04:42:21.100Z,40.90
2018-09-03T04:44:50.263Z,39.63
2018-09-03T04:47:19.429Z,41.77
2018-09-03T04:49:48.577Z,42.00
2018-09-03T04:52:17.736Z,43.43
2018-09-03T04:54:46.966Z,44.03
2018-09-03T04:57:16.041Z,40.57
2018-09-03T04:59:45.203Z,40.63
2018-09-03T05:02:14.707Z,40.10
2018-09-03T05:04:44.335Z,38.20
2018-09-03T05:07:13.771Z,42.70
2018-09-03T05:09:43.010Z,39.23
2018-09-03T05:12:12.235Z,42.53
2018-09-03T05:14:41.932Z,44.70
2018-09-03T05:17:11.289Z,43.33
2018-09-03T05:19:40.411Z,39.70
2018-09-03T05:22:09.542Z,44.00
2018-09-03T05:24:38.652Z,48.53
2018-09-03T05:27:07.847Z,45.77
2018-09-03T05:29:37.021Z,40.57
2018-09-03T05:32:06.235Z,44.40
2018-09-03T05:34:35.376Z,47.03
2018-09-03T05:37:04.642Z,50.77
2018-09-03T05:39:33.771Z,50.63
2018-09-03T05:42:02.923Z,48.97
2018-09-03T05:44:32.140Z,51.20
2018-09-03T05:47:01.367Z,49.57
2018-09-03T05:49:30.581Z,51.97
2018-09-03T05:51:59.716Z,47.83
2018-09-03T05:54:28.947Z,47.87
2018-09-03T05:56:58.633Z,50.23
2018-09-03T05:59:27.772Z,45.93
2018-09-03T06:01:57.662Z,48.70
2018-09-03T06:04:26.837Z,50.80
2018-09-03T06:06:55.994Z,49.33
2018-09-03T06:09:25.128Z,47.93
2018-09-03T06:11:54.240Z,49.03
2018-09-03T06:14:23.406Z,47.63
2018-09-03T06:16:52.599Z,49.40
2018-09-03T06:19:21.891Z,47.50
2018-09-03T06:21:51.075Z,50.83
2018-09-03T06:24:20.411Z,48.33
2018-09-03T06:26:49.552Z,49.17
2018-09-03T06:29:18.713Z,45.00
2018-09-03T06:31:47.968Z,45.57
2018-09-03T06:34:17.189Z,40.83
2018-09-03T06:36:46.326Z,44.13
2018-09-03T06:39:15.614Z,42.50
2018-09-03T06:41:44.744Z,39.43
2018-09-03T06:44:14.523Z,34.67
2018-09-03T06:46:43.704Z,37.73
2018-09-03T06:49:12.900Z,33.63
2018-09-03T06:51:42.758Z,39.33
2018-09-03T06:54:12.921Z,34.90
2018-09-03T06:56:42.765Z,34.27
2018-09-03T06:59:11.987Z,36.47
2018-09-03T07:01:41.193Z,36.80
2018-09-03T07:04:10.394Z,37.23
2018-09-03T07:06:39.587Z,35.30
2018-09-03T07:09:09.946Z,33.60
2018-09-03T07:11:39.222Z,34.27
2018-09-03T07:14:08.361Z,32.63
2018-09-03T07:16:37.598Z,34.87
2018-09-03T07:19:06.809Z,33.63
2018-09-03T07:21:36.001Z,33.60
2018-09-03T07:24:05.212Z,33.63
2018-09-03T07:26:34.435Z,35.00
2018-09-03T07:29:03.613Z,34.30
2018-09-03T07:31:33.115Z,30.87
2018-09-03T07:34:02.385Z,33.73
2018-09-03T07:36:32.007Z,31.97
2018-09-03T07:39:01.236Z,35.93
2018-09-03T07:41:30.469Z,36.83
2018-09-03T07:43:59.718Z,36.03
2018-09-03T07:46:28.859Z,33.47
2018-09-03T07:48:58.143Z,33.13
2018-09-03T07:51:27.369Z,33.17
2018-09-03T07:53:56.628Z,32.87
2018-09-03T07:56:25.762Z,30.77
2018-09-03T07:58:54.996Z,32.10
2018-09-03T08:01:24.204Z,30.03
2018-09-03T08:03:53.634Z,32.40
2018-09-03T08:06:22.787Z,30.93
2018-09-03T08:08:51.917Z,27.50
2018-09-03T08:11:21.080Z,27.57
2018-09-03T08:13:50.284Z,24.70
2018-09-03T08:16:19.564Z,28.03
2018-09-03T08:18:48.779Z,26.63
2018-09-03T08:21:17.912Z,24.97
2018-09-03T08:23:47.225Z,27.00
2018-09-03T08:26:16.418Z,23.30
2018-09-03T08:28:45.634Z,23.33
2018-09-03T08:31:14.815Z,22.50
2018-09-03T08:33:44.448Z,24.83
2018-09-03T08:36:13.626Z,21.87
2018-09-03T08:38:42.879Z,23.33
2018-09-03T08:41:12.112Z,24.30
2018-09-03T08:43:41.289Z,22.37
2018-09-03T08:46:10.452Z,22.37
2018-09-03T08:48:39.601Z,23.07
2018-09-03T08:51:08.971Z,22.50
2018-09-03T08:53:38.193Z,22.40
2018-09-03T08:56:07.436Z,21.23
2018-09-03T08:58:36.689Z,23.30
2018-09-03T09:01:05.882Z,22.57
2018-09-03T09:03:42.625Z,23.50
2018-09-03T09:06:12.237Z,22.53
2018-09-03T09:08:41.481Z,22.57
2018-09-03T09:11:10.788Z,20.90
2018-09-03T09:13:39.949Z,21.37
2018-09-03T09:16:09.341Z,20.73
2018-09-03T09:18:38.540Z,21.40
2018-09-03T09:21:07.811Z,21.40
2018-09-03T09:23:36.954Z,20.77
2018-09-03T09:26:06.148Z,20.53
2018-09-03T09:28:35.851Z,20.83
2018-09-03T09:31:05.088Z,20.00
2018-09-03T09:33:34.348Z,19.77
2018-09-03T09:36:03.484Z,21.13
2018-09-03T09:38:32.628Z,20.30
2018-09-03T09:41:01.802Z,21.30
2018-09-03T09:43:30.973Z,21.93
2018-09-03T09:46:00.364Z,20.97
2018-09-03T09:48:29.503Z,18.93
2018-09-03T09:50:58.932Z,21.80
2018-09-03T09:53:29.177Z,19.47
2018-09-03T09:55:58.386Z,18.80
2018-09-03T09:58:28.337Z,18.60
2018-09-03T10:01:02.796Z,17.97
2018-09-03T10:03:32.891Z,17.20
2018-09-03T10:06:02.185Z,18.00
2018-09-03T10:08:32.123Z,15.97
2018-09-03T10:11:01.340Z,16.70
2018-09-03T10:13:30.632Z,16.70
2018-09-03T10:16:00.001Z,16.87
2018-09-03T10:18:29.109Z,18.03
2018-09-03T10:20:58.366Z,17.73
2018-09-03T10:23:27.446Z,17.87
2018-09-03T10:25:57.119Z,16.83
2018-09-03T10:28:26.299Z,15.97
2018-09-03T10:30:55.470Z,16.07
2018-09-03T10:33:24.712Z,16.17
2018-09-03T10:35:53.824Z,15.47
2018-09-03T10:38:25.460Z,17.10
2018-09-03T10:40:54.629Z,18.10
2018-09-03T10:43:23.875Z,16.10
2018-09-03T10:45:53.007Z,15.70
2018-09-03T10:48:22.407Z,15.37
2018-09-03T10:50:51.635Z,18.63
2018-09-03T10:53:20.778Z,15.50
2018-09-03T10:55:50.008Z,15.97
2018-09-03T10:58:19.124Z,16.83
2018-09-03T11:00:49.900Z,17.47
2018-09-03T11:03:19.078Z,15.90
2018-09-03T11:05:48.198Z,16.50
2018-09-03T11:08:17.424Z,16.60
2018-09-03T11:10:46.685Z,16.83
2018-09-03T11:13:15.876Z,16.97
2018-09-03T11:15:45.057Z,16.90
2018-09-03T11:21:50.188Z,17.63
2018-09-03T11:24:19.313Z,18.10
2018-09-03T11:26:48.523Z,17.27
2018-09-03T11:29:17.650Z,18.13
2018-09-03T11:31:46.976Z,18.43
2018-09-03T11:34:16.148Z,18.17
2018-09-03T11:36:45.364Z,17.70
2018-09-03T11:39:14.512Z,17.83
2018-09-03T11:41:43.700Z,19.00
2018-09-03T11:44:12.894Z,18.80
2018-09-03T11:46:42.056Z,18.70
2018-09-03T11:49:11.277Z,19.73
2018-09-03T11:51:40.447Z,19.17
2018-09-03T11:54:09.623Z,21.90
2018-09-03T11:56:38.941Z,21.50
2018-09-03T11:59:08.094Z,18.80
2018-09-03T12:01:37.285Z,19.50
2018-09-03T12:04:06.565Z,19.63
2018-09-03T12:06:35.797Z,19.57
2018-09-03T12:09:07.469Z,17.80
2018-09-03T12:11:36.693Z,16.27
2018-09-03T12:14:11.908Z,16.10
2018-09-03T12:16:41.108Z,14.37
2018-09-03T12:19:10.430Z,15.13
2018-09-03T12:21:39.618Z,15.67
2018-09-03T12:24:08.752Z,16.70
2018-09-03T12:26:37.961Z,15.97
2018-09-03T12:29:07.821Z,18.23
2018-09-03T12:31:36.960Z,16.03
2018-09-03T12:34:06.100Z,16.77
2018-09-03T12:36:35.242Z,19.70
2018-09-03T12:39:06.952Z,18.03
2018-09-03T12:41:36.123Z,16.73
2018-09-03T12:44:05.332Z,17.97
2018-09-03T12:46:34.573Z,20.00
2018-09-03T12:49:03.656Z,16.90
2018-09-03T12:51:32.909Z,16.40
2018-09-03T12:54:02.036Z,17.57
2018-09-03T12:56:31.351Z,18.07
2018-09-03T12:59:00.481Z,19.47
2018-09-03T13:01:30.408Z,17.23
2018-09-03T13:03:59.697Z,21.47
2018-09-03T13:06:28.924Z,17.17
2018-09-03T13:08:58.051Z,21.20
2018-09-03T13:11:27.178Z,18.00
2018-09-03T13:14:03.347Z,19.17
2018-09-03T13:16:32.592Z,19.40
2018-09-03T13:19:02.509Z,19.53
2018-09-03T13:21:31.941Z,17.77
2018-09-03T13:24:01.186Z,16.63
2018-09-03T13:26:30.424Z,19.50
2018-09-03T13:28:59.678Z,16.63
2018-09-03T13:31:28.952Z,16.37
2018-09-03T13:33:58.143Z,17.93
2018-09-03T13:36:27.296Z,14.70
2018-09-03T13:38:56.621Z,16.57
2018-09-03T13:41:25.759Z,17.97
2018-09-03T13:43:55.945Z,18.60
2018-09-03T13:46:25.128Z,16.50
2018-09-03T13:48:54.260Z,17.13
2018-09-03T13:51:23.558Z,17.57
2018-09-03T13:53:52.895Z,19.00
2018-09-03T13:56:22.047Z,16.17
2018-09-03T13:58:51.232Z,15.27
2018-09-03T14:01:20.528Z,18.80
2018-09-03T14:03:49.704Z,16.47
2018-09-03T14:06:18.935Z,18.03
2018-09-03T14:08:48.218Z,17.73
2018-09-03T14:11:17.445Z,21.23
2018-09-03T14:13:46.687Z,20.60
2018-09-03T14:16:15.864Z,19.77
2018-09-03T14:18:45.123Z,21.73
2018-09-03T14:21:14.441Z,22.40
2018-09-03T14:23:43.654Z,21.77
2018-09-03T14:26:12.844Z,21.67
2018-09-03T14:28:42.038Z,25.07
2018-09-03T14:31:11.307Z,22.83
2018-09-03T14:33:40.523Z,20.50
2018-09-03T14:36:09.719Z,20.80
2018-09-03T14:38:38.936Z,21.30
2018-09-03T14:41:08.078Z,22.73
2018-09-03T14:43:37.372Z,25.07
2018-09-03T14:46:06.774Z,23.37
2018-09-03T14:48:36.068Z,23.83
2018-09-03T14:51:05.465Z,23.53
2018-09-03T14:53:35.277Z,18.90
2018-09-03T14:56:04.624Z,21.37
2018-09-03T14:58:33.757Z,20.23
2018-09-03T15:01:02.959Z,19.63
2018-09-03T15:03:32.416Z,22.53
2018-09-03T15:06:01.940Z,23.03
2018-09-03T15:08:31.240Z,22.47
2018-09-03T15:11:00.392Z,21.70
2018-09-03T15:13:29.595Z,18.47
2018-09-03T15:15:58.871Z,21.03
2018-09-03T15:18:28.321Z,21.30
2018-09-03T15:20:58.338Z,23.07
2018-09-03T15:23:27.651Z,21.93
2018-09-03T15:25:56.969Z,18.50
2018-09-03T15:28:26.640Z,19.97
2018-09-03T15:30:55.876Z,20.63
2018-09-03T15:33:25.074Z,20.43
2018-09-03T15:35:54.311Z,17.93
2018-09-03T15:38:23.493Z,19.90
2018-09-03T15:40:52.729Z,20.50
2018-09-03T15:43:21.956Z,20.60
2018-09-03T15:45:51.039Z,23.33
2018-09-03T15:48:20.211Z,25.60
2018-09-03T15:50:49.400Z,22.03
2018-09-03T15:53:18.601Z,24.03
2018-09-03T15:55:47.744Z,22.80
2018-09-03T15:58:16.945Z,24.47
2018-09-03T16:00:46.206Z,26.60
2018-09-03T16:03:15.416Z,21.13
2018-09-03T16:05:44.603Z,23.03
2018-09-03T16:08:13.753Z,22.17
2018-09-03T16:10:42.949Z,24.37
2018-09-03T16:13:12.268Z,23.77
2018-09-03T16:15:41.449Z,27.30
2018-09-03T16:18:10.704Z,25.10
2018-09-03T16:20:39.958Z,27.20
2018-09-03T16:23:09.927Z,24.93
2018-09-03T16:25:39.338Z,26.23
2018-09-03T16:28:08.606Z,22.17
2018-09-03T16:30:37.782Z,22.97
2018-09-03T16:33:07.096Z,27.83
2018-09-03T16:35:36.365Z,25.77
2018-09-03T16:38:06.416Z,52.17
2018-09-03T16:40:35.674Z,41.13
2018-09-03T16:43:04.977Z,28.27
2018-09-03T16:45:34.091Z,21.47
2018-09-03T16:48:03.368Z,24.43
2018-09-03T16:50:32.580Z,22.40
2018-09-03T16:53:01.772Z,24.23
2018-09-03T16:55:31.094Z,22.10
2018-09-03T16:58:00.271Z,26.13
2018-09-03T17:00:29.415Z,24.93
2018-09-03T17:02:58.656Z,25.77
2018-09-03T17:05:29.111Z,27.80
2018-09-03T17:07:58.381Z,28.13
2018-09-03T17:10:27.643Z,26.63
2018-09-03T17:12:56.792Z,27.20
2018-09-03T17:15:26.772Z,27.97
2018-09-03T17:17:55.921Z,28.83
2018-09-03T17:20:25.212Z,28.30
2018-09-03T17:22:55.265Z,28.17
2018-09-03T17:25:24.500Z,31.73
2018-09-03T17:27:53.687Z,27.93
2018-09-03T17:30:22.868Z,27.47
2018-09-03T17:32:52.059Z,27.37
2018-09-03T17:35:21.226Z,27.87
2018-09-03T17:37:50.421Z,30.10
2018-09-03T17:40:19.540Z,30.40
2018-09-03T17:42:48.759Z,34.23
2018-09-03T17:45:17.951Z,29.40
2018-09-03T17:47:47.140Z,32.43
2018-09-03T17:50:16.951Z,27.67
2018-09-03T17:52:46.080Z,31.70
2018-09-03T17:55:15.282Z,27.07
2018-09-03T17:57:44.506Z,28.33
2018-09-03T18:00:13.724Z,28.60
2018-09-03T18:02:42.965Z,25.40
2018-09-03T18:05:12.168Z,32.60
2018-09-03T18:07:41.403Z,27.90
2018-09-03T18:10:10.593Z,27.70
2018-09-03T18:12:39.820Z,27.73
2018-09-03T18:15:09.058Z,26.50
2018-09-03T18:17:38.315Z,27.00
2018-09-03T18:20:07.537Z,29.27
2018-09-03T18:22:36.701Z,34.10
2018-09-03T18:25:12.968Z,30.60
2018-09-03T18:27:42.149Z,31.80
2018-09-03T18:30:11.425Z,35.37
2018-09-03T18:32:40.554Z,32.90
2018-09-03T18:35:09.693Z,39.60
2018-09-03T18:37:38.907Z,34.30
2018-09-03T18:40:08.214Z,32.47
2018-09-03T18:42:37.377Z,34.47
2018-09-03T18:45:07.898Z,34.80
2018-09-03T18:47:37.292Z,33.97
2018-09-03T18:50:08.430Z,35.43
2018-09-03T18:52:38.137Z,37.93
2018-09-03T18:55:07.996Z,39.43
2018-09-03T18:57:37.441Z,34.40
2018-09-03T19:00:07.708Z,35.13
2018-09-03T19:02:37.095Z,35.20
2018-09-03T19:05:06.709Z,31.43
2018-09-03T19:07:36.163Z,33.90
2018-09-03T19:10:05.622Z,35.13
2018-09-03T19:12:34.797Z,33.50
2018-09-03T19:15:03.979Z,38.10
2018-09-03T19:17:33.859Z,30.20
2018-09-03T19:20:04.375Z,37.20
2018-09-03T19:22:33.665Z,37.77
2018-09-03T19:25:03.605Z,34.10
2018-09-03T19:27:32.765Z,41.53
2018-09-03T19:30:01.928Z,40.63
2018-09-03T19:32:31.645Z,39.40
2018-09-03T19:35:00.816Z,41.03
2018-09-03T19:37:29.970Z,34.77
2018-09-03T19:39:59.120Z,34.00
2018-09-03T19:42:28.335Z,35.97
2018-09-03T19:44:57.506Z,34.17
2018-09-03T19:47:26.632Z,34.90
2018-09-03T19:49:55.773Z,36.37
2018-09-03T19:52:24.992Z,35.03
2018-09-03T19:54:54.128Z,31.60
2018-09-03T19:57:23.304Z,34.27
2018-09-03T19:59:52.472Z,37.13
2018-09-03T20:02:21.617Z,34.63
2018-09-03T20:04:50.857Z,37.70
2018-09-03T20:07:20.030Z,42.50
2018-09-03T20:09:49.191Z,40.97
2018-09-03T20:12:18.346Z,39.17
2018-09-03T20:14:47.581Z,42.50
2018-09-03T20:17:16.808Z,39.67
2018-09-03T20:19:45.932Z,38.60
2018-09-03T20:22:17.169Z,41.87
2018-09-03T20:24:46.889Z,39.30
2018-09-03T20:27:16.027Z,40.23
2018-09-03T20:29:45.663Z,42.43
2018-09-03T20:32:14.813Z,41.67
2018-09-03T20:34:44.033Z,44.60
2018-09-03T20:37:13.381Z,44.67
2018-09-03T20:39:42.505Z,41.80
2018-09-03T20:42:11.675Z,42.97
2018-09-03T20:44:40.926Z,37.03
2018-09-03T20:47:10.089Z,35.43
2018-09-03T20:49:39.280Z,33.43
2018-09-03T20:52:08.429Z,31.23
2018-09-03T20:54:37.573Z,33.97
2018-09-03T20:57:06.700Z,38.77
2018-09-03T20:59:35.846Z,42.50
2018-09-03T21:02:05.694Z,42.00
2018-09-03T21:04:34.853Z,44.33
2018-09-03T21:07:04.018Z,42.17
2018-09-03T21:09:33.159Z,45.53
2018-09-03T21:12:02.397Z,42.47
2018-09-03T21:14:31.686Z,45.53
2018-09-03T21:17:00.787Z,47.30
2018-09-03T21:19:30.048Z,43.73
2018-09-03T21:21:59.392Z,43.13
2018-09-03T21:24:28.443Z,44.17
2018-09-03T21:26:57.638Z,49.87
2018-09-03T21:29:26.718Z,46.03
2018-09-03T21:31:55.957Z,44.90
2018-09-03T21:34:25.141Z,46.43
2018-09-03T21:36:54.285Z,49.90
2018-09-03T21:39:23.431Z,47.80
2018-09-03T21:41:52.619Z,45.87
2018-09-03T21:44:21.796Z,49.30
2018-09-03T21:46:51.088Z,48.37
2018-09-03T21:49:20.806Z,41.77
2018-09-03T21:51:49.933Z,41.87
2018-09-03T21:54:19.167Z,39.10
2018-09-03T21:56:48.303Z,36.97
2018-09-03T21:59:17.497Z,38.03
2018-09-03T22:01:46.669Z,35.27
2018-09-03T22:04:15.827Z,34.83
2018-09-03T22:06:44.998Z,35.23
2018-09-03T22:09:14.168Z,37.50
2018-09-03T22:11:43.352Z,33.87
2018-09-03T22:14:12.596Z,37.63
2018-09-03T22:16:41.742Z,33.37
2018-09-03T22:19:11.118Z,34.60
2018-09-03T22:21:40.232Z,34.67
2018-09-03T22:24:09.392Z,34.87
2018-09-03T22:26:38.672Z,35.33
2018-09-03T22:29:07.804Z,35.20
2018-09-03T22:31:36.920Z,34.03
2018-09-03T22:34:06.080Z,33.33
2018-09-03T22:36:35.284Z,33.13
2018-09-03T22:39:04.965Z,31.87
2018-09-03T22:41:34.085Z,32.83
2018-09-03T22:44:03.322Z,31.13
2018-09-03T22:46:32.493Z,32.63
2018-09-03T22:49:01.632Z,31.70
2018-09-03T22:51:30.801Z,32.97
2018-09-03T22:54:00.628Z,32.37
2018-09-03T22:56:29.772Z,30.63
2018-09-03T22:58:58.947Z,29.63
2018-09-03T23:01:28.152Z,31.97
2018-09-03T23:03:57.303Z,29.70
2018-09-03T23:06:26.530Z,34.53
2018-09-03T23:08:55.685Z,31.13
2018-09-03T23:11:24.816Z,31.87
2018-09-03T23:13:53.916Z,33.27
2018-09-03T23:16:23.844Z,32.70
2018-09-03T23:18:53.096Z,31.63
2018-09-03T23:21:22.244Z,34.57
2018-09-03T23:23:51.380Z,35.80
2018-09-03T23:26:20.524Z,35.30
2018-09-03T23:28:49.703Z,38.40
2018-09-03T23:31:18.867Z,39.10
2018-09-03T23:33:47.951Z,41.13
2018-09-03T23:36:17.572Z,39.50
2018-09-03T23:38:46.700Z,42.00
2018-09-03T23:41:15.901Z,38.60
2018-09-03T23:43:45.025Z,35.87
2018-09-03T23:46:14.216Z,38.97
2018-09-03T23:48:43.437Z,38.90
2018-09-03T23:51:12.781Z,34.03
2018-09-03T23:53:41.896Z,33.50
2018-09-03T23:56:11.043Z,38.43
2018-09-03T23:58:40.223Z,36.67
